CheckWX is a tool to help pilots better visualize weather data.  It is not intended as a substitute for an official pre-flight weather briefing.

01:02:05 UTC

KTMB TAF
Miami Executive Airport
Miami, Florida, USA
KTMB 162325Z 1700/1724 30010KT P6SM VCTS SCT040CB BKN070 FM170300 35005KT P6SM FEW030 SCT050 FM171400 35008KT P6SM SCT030 FM172100 08008KT P6SM SCT035

Sep-17@
00:00 UTC

Sep-17 @ 00:00 UTC

Sep-17@
03:00 UTC

Sep-17 @ 03:00 UTC

KTMB 162325Z 1700/1724 30010KT P6SM VCTS SCT040CB BKN070
Wind
  • 300° at 10 KTS
Conditions
Area Thunderstorm
Cloud Levels
  • Scattered at 4,000' AGL
  • Broken at 7,000' AGL

Sep-17@
03:00 UTC

Sep-17 @ 03:00 UTC

Sep-17@
14:00 UTC

Sep-17 @ 14:00 UTC

FM170300 35005KT P6SM FEW030 SCT050

From

From Standard forecast or significant change

Wind
  • 350° at 5 KTS
Cloud Levels
  • Few at 3,000' AGL
  • Scattered at 5,000' AGL

Sep-17@
14:00 UTC

Sep-17 @ 14:00 UTC

Sep-17@
21:00 UTC

Sep-17 @ 21:00 UTC

FM171400 35008KT P6SM SCT030

From

From Standard forecast or significant change

Wind
  • 350° at 8 KTS
Cloud Levels
  • Scattered at 3,000' AGL

Sep-17@
21:00 UTC

Sep-17 @ 21:00 UTC

Sep-18@
00:00 UTC

Sep-18 @ 00:00 UTC

FM172100 08008KT P6SM SCT035

From

From Standard forecast or significant change

Wind
  • 080° at 8 KTS
Cloud Levels
  • Scattered at 3,500' AGL